sensor_id;sensor_type;location;lat;lon;timestamp;pressure;altitude;pressure_sealevel;temperature;humidity
62150;BME280;48134;53.586;10.610;2023-07-30T00:02:24;100031.47;;;14.94;100.00
62150;BME280;48134;53.586;10.610;2023-07-30T00:04:57;100031.13;;;14.87;100.00
62150;BME280;48134;53.586;10.610;2023-07-30T00:07:30;100039.22;;;14.84;100.00
62150;BME280;48134;53.586;10.610;2023-07-30T00:10:06;100039.03;;;14.80;100.00
62150;BME280;48134;53.586;10.610;2023-07-30T00:12:34;100041.28;;;14.87;100.00
62150;BME280;48134;53.586;10.610;2023-07-30T00:15:08;100044.69;;;14.84;100.00
62150;BME280;48134;53.586;10.610;2023-07-30T00:17:41;100046.78;;;14.87;100.00
62150;BME280;48134;53.586;10.610;2023-07-30T00:20:10;100048.09;;;14.81;100.00
62150;BME280;48134;53.586;10.610;2023-07-30T00:22:43;100047.28;;;14.89;100.00
62150;BME280;48134;53.586;10.610;2023-07-30T00:25:17;100047.56;;;14.87;100.00
62150;BME280;48134;53.586;10.610;2023-07-30T00:27:46;100036.31;;;14.89;100.00
62150;BME280;48134;53.586;10.610;2023-07-30T00:30:19;100045.16;;;14.86;100.00
62150;BME280;48134;53.586;10.610;2023-07-30T00:32:47;100049.50;;;14.95;100.00
62150;BME280;48134;53.586;10.610;2023-07-30T00:35:20;100054.19;;;14.95;100.00
62150;BME280;48134;53.586;10.610;2023-07-30T00:37:54;100041.59;;;14.94;100.00
62150;BME280;48134;53.586;10.610;2023-07-30T00:40:24;100046.44;;;14.88;100.00
62150;BME280;48134;53.586;10.610;2023-07-30T00:42:57;100040.00;;;14.93;100.00
62150;BME280;48134;53.586;10.610;2023-07-30T00:45:31;100033.56;;;14.98;100.00
62150;BME280;48134;53.586;10.610;2023-07-30T00:47:59;100044.84;;;14.96;100.00
62150;BME280;48134;53.586;10.610;2023-07-30T00:50:33;100048.03;;;14.98;100.00
62150;BME280;48134;53.586;10.610;2023-07-30T00:53:09;100049.81;;;14.94;100.00
62150;BME280;48134;53.586;10.610;2023-07-30T00:55:38;100047.56;;;15.05;100.00
62150;BME280;48134;53.586;10.610;2023-07-30T00:58:12;100046.59;;;15.09;100.00
62150;BME280;48134;53.586;10.610;2023-07-30T01:00:45;100052.38;;;15.08;100.00
62150;BME280;48134;53.586;10.610;2023-07-30T01:03:14;100045.94;;;15.12;100.00
62150;BME280;48134;53.586;10.610;2023-07-30T01:05:47;100055.59;;;15.10;100.00
62150;BME280;48134;53.586;10.610;2023-07-30T01:08:20;100077.69;;;15.05;100.00
62150;BME280;48134;53.586;10.610;2023-07-30T01:10:57;100072.91;;;14.93;100.00
62150;BME280;48134;53.586;10.610;2023-07-30T01:13:26;100047.56;;;14.87;100.00
62150;BME280;48134;53.586;10.610;2023-07-30T01:16:01;100056.63;;;14.88;100.00
62150;BME280;48134;53.586;10.610;2023-07-30T01:18:35;100062.75;;;14.85;100.00
62150;BME280;48134;53.586;10.610;2023-07-30T01:21:05;100062.22;;;14.91;100.00
62150;BME280;48134;53.586;10.610;2023-07-30T01:23:38;100061.59;;;14.94;100.00
62150;BME280;48134;53.586;10.610;2023-07-30T01:26:18;100071.59;;;14.90;100.00
62150;BME280;48134;53.586;10.610;2023-07-30T01:28:49;100066.59;;;14.92;100.00
62150;BME280;48134;53.586;10.610;2023-07-30T01:31:26;100060.31;;;14.92;100.00
62150;BME280;48134;53.586;10.610;2023-07-30T01:34:01;100051.13;;;14.96;100.00
62150;BME280;48134;53.586;10.610;2023-07-30T01:36:38;100048.38;;;14.96;100.00
62150;BME280;48134;53.586;10.610;2023-07-30T01:39:12;100047.72;;;15.00;100.00
62150;BME280;48134;53.586;10.610;2023-07-30T01:41:41;100041.78;;;14.98;100.00
62150;BME280;48134;53.586;10.610;2023-07-30T01:44:09;100035.47;;;15.06;100.00
62150;BME280;48134;53.586;10.610;2023-07-30T01:46:37;100021.59;;;15.02;100.00
62150;BME280;48134;53.586;10.610;2023-07-30T01:49:05;100027.72;;;15.08;100.00
62150;BME280;48134;53.586;10.610;2023-07-30T01:51:40;100026.91;;;15.07;100.00
62150;BME280;48134;53.586;10.610;2023-07-30T01:54:13;100032.09;;;15.00;100.00
62150;BME280;48134;53.586;10.610;2023-07-30T01:56:47;100040.16;;;15.05;100.00
62150;BME280;48134;53.586;10.610;2023-07-30T01:59:20;100050.63;;;15.03;100.00
62150;BME280;48134;53.586;10.610;2023-07-30T02:01:48;100046.25;;;15.02;100.00
62150;BME280;48134;53.586;10.610;2023-07-30T02:04:22;100049.34;;;15.01;100.00
62150;BME280;48134;53.586;10.610;2023-07-30T02:06:56;100042.44;;;14.94;100.00
62150;BME280;48134;53.586;10.610;2023-07-30T02:09:25;100043.72;;;14.97;100.00
62150;BME280;48134;53.586;10.610;2023-07-30T02:11:59;100046.78;;;14.87;100.00
62150;BME280;48134;53.586;10.610;2023-07-30T02:14:28;100052.88;;;14.92;100.00
62150;BME280;48134;53.586;10.610;2023-07-30T02:17:01;100048.88;;;14.90;100.00
62150;BME280;48134;53.586;10.610;2023-07-30T02:19:34;100049.50;;;14.87;100.00
62150;BME280;48134;53.586;10.610;2023-07-30T02:22:09;100042.75;;;14.75;100.00
62150;BME280;48134;53.586;10.610;2023-07-30T02:24:42;100038.75;;;14.73;100.00
62150;BME280;48134;53.586;10.610;2023-07-30T02:27:10;100028.56;;;14.73;100.00
62150;BME280;48134;53.586;10.610;2023-07-30T02:29:38;100041.97;;;14.75;100.00
62150;BME280;48134;53.586;10.610;2023-07-30T02:32:11;100039.06;;;14.71;100.00
62150;BME280;48134;53.586;10.610;2023-07-30T02:34:45;100036.16;;;14.68;100.00
62150;BME280;48134;53.586;10.610;2023-07-30T02:37:14;100035.19;;;14.72;100.00
62150;BME280;48134;53.586;10.610;2023-07-30T02:39:43;100041.47;;;14.73;100.00
62150;BME280;48134;53.586;10.610;2023-07-30T02:42:16;100035.69;;;14.66;100.00
62150;BME280;48134;53.586;10.610;2023-07-30T02:44:44;100042.13;;;14.70;100.00
62150;BME280;48134;53.586;10.610;2023-07-30T02:47:17;100044.88;;;14.70;100.00
62150;BME280;48134;53.586;10.610;2023-07-30T02:49:50;100052.91;;;14.66;100.00
62150;BME280;48134;53.586;10.610;2023-07-30T02:52:25;100043.75;;;14.71;100.00
62150;BME280;48134;53.586;10.610;2023-07-30T02:54:58;100044.38;;;14.76;100.00
62150;BME280;48134;53.586;10.610;2023-07-30T02:57:31;100047.91;;;14.77;100.00
62150;BME280;48134;53.586;10.610;2023-07-30T03:00:05;100048.88;;;14.81;100.00
62150;BME280;48134;53.586;10.610;2023-07-30T03:02:35;100045.81;;;14.83;100.00
62150;BME280;48134;53.586;10.610;2023-07-30T03:05:09;100055.66;;;14.84;100.00
62150;BME280;48134;53.586;10.610;2023-07-30T03:07:45;100057.91;;;14.82;100.00
62150;BME280;48134;53.586;10.610;2023-07-30T03:10:18;100060.16;;;14.79;100.00
62150;BME280;48134;53.586;10.610;2023-07-30T03:12:46;100056.44;;;14.84;100.00
62150;BME280;48134;53.586;10.610;2023-07-30T03:15:19;100059.69;;;14.86;100.00
62150;BME280;48134;53.586;10.610;2023-07-30T03:17:52;100062.41;;;14.95;100.00
62150;BME280;48134;53.586;10.610;2023-07-30T03:20:26;100062.25;;;14.83;100.00
62150;BME280;48134;53.586;10.610;2023-07-30T03:23:01;100059.38;;;14.79;100.00
62150;BME280;48134;53.586;10.610;2023-07-30T03:25:34;100063.22;;;14.78;100.00
62150;BME280;48134;53.586;10.610;2023-07-30T03:28:07;100062.59;;;14.72;100.00
62150;BME280;48134;53.586;10.610;2023-07-30T03:30:41;100064.03;;;14.70;100.00
62150;BME280;48134;53.586;10.610;2023-07-30T03:33:14;100071.94;;;14.62;100.00
62150;BME280;48134;53.586;10.610;2023-07-30T03:35:48;100067.91;;;14.69;100.00
62150;BME280;48134;53.586;10.610;2023-07-30T03:38:23;100060.00;;;14.67;100.00
62150;BME280;48134;53.586;10.610;2023-07-30T03:40:56;100060.34;;;14.66;100.00
62150;BME280;48134;53.586;10.610;2023-07-30T03:43:24;100074.94;;;14.61;100.00
62150;BME280;48134;53.586;10.610;2023-07-30T03:45:57;100070.78;;;14.63;100.00
62150;BME280;48134;53.586;10.610;2023-07-30T03:48:26;100072.06;;;14.57;100.00
62150;BME280;48134;53.586;10.610;2023-07-30T03:50:59;100069.47;;;14.61;100.00
62150;BME280;48134;53.586;10.610;2023-07-30T03:53:34;100089.28;;;14.58;100.00
62150;BME280;48134;53.586;10.610;2023-07-30T03:56:03;100086.69;;;14.53;100.00
62150;BME280;48134;53.586;10.610;2023-07-30T03:58:36;100088.63;;;14.52;100.00
62150;BME280;48134;53.586;10.610;2023-07-30T04:01:09;100078.81;;;14.51;100.00
62150;BME280;48134;53.586;10.610;2023-07-30T04:03:42;100083.97;;;14.53;100.00
62150;BME280;48134;53.586;10.610;2023-07-30T04:06:16;100085.56;;;14.54;100.00
62150;BME280;48134;53.586;10.610;2023-07-30T04:08:50;100084.78;;;14.53;100.00
62150;BME280;48134;53.586;10.610;2023-07-30T04:11:25;100091.56;;;14.56;100.00
62150;BME280;48134;53.586;10.610;2023-07-30T04:13:58;100083.50;;;14.51;100.00
62150;BME280;48134;53.586;10.610;2023-07-30T04:16:26;100085.91;;;14.52;100.00
62150;BME280;48134;53.586;10.610;2023-07-30T04:18:59;100083.97;;;14.53;100.00
62150;BME280;48134;53.586;10.610;2023-07-30T04:21:32;100086.69;;;14.53;100.00
62150;BME280;48134;53.586;10.610;2023-07-30T04:24:07;100098.78;;;14.52;100.00
62150;BME280;48134;53.586;10.610;2023-07-30T04:26:40;100093.00;;;14.53;100.00
62150;BME280;48134;53.586;10.610;2023-07-30T04:29:13;100096.69;;;14.57;100.00
62150;BME280;48134;53.586;10.610;2023-07-30T04:31:49;100090.59;;;14.60;100.00
62150;BME280;48134;53.586;10.610;2023-07-30T04:34:22;100100.13;;;14.63;100.00
62150;BME280;48134;53.586;10.610;2023-07-30T04:36:50;100098.47;;;14.62;100.00
62150;BME280;48134;53.586;10.610;2023-07-30T04:39:25;100100.59;;;14.65;100.00
62150;BME280;48134;53.586;10.610;2023-07-30T04:41:58;100101.41;;;14.66;100.00
62150;BME280;48134;53.586;10.610;2023-07-30T04:44:32;100102.03;;;14.80;100.00
62150;BME280;48134;53.586;10.610;2023-07-30T04:47:07;100098.50;;;14.79;100.00
62150;BME280;48134;53.586;10.610;2023-07-30T04:49:35;100101.44;;;14.83;100.00
62150;BME280;48134;53.586;10.610;2023-07-30T04:52:07;100093.50;;;14.82;100.00
62150;BME280;48134;53.586;10.610;2023-07-30T04:54:42;100097.38;;;14.89;100.00
62150;BME280;48134;53.586;10.610;2023-07-30T04:57:16;100089.97;;;14.90;100.00
62150;BME280;48134;53.586;10.610;2023-07-30T04:59:49;100101.09;;;14.93;100.00
62150;BME280;48134;53.586;10.610;2023-07-30T05:02:22;100096.09;;;14.87;100.00
62150;BME280;48134;53.586;10.610;2023-07-30T05:04:55;100097.22;;;14.94;100.00
62150;BME280;48134;53.586;10.610;2023-07-30T05:07:28;100096.56;;;14.98;100.00
62150;BME280;48134;53.586;10.610;2023-07-30T05:09:58;100088.66;;;15.05;100.00
62150;BME280;48134;53.586;10.610;2023-07-30T05:12:26;100091.72;;;15.21;100.00
62150;BME280;48134;53.586;10.610;2023-07-30T05:14:59;100093.59;;;15.38;100.00
62150;BME280;48134;53.586;10.610;2023-07-30T05:17:27;100093.72;;;15.97;100.00
62150;BME280;48134;53.586;10.610;2023-07-30T05:19:55;100093.38;;;16.29;100.00
62150;BME280;48134;53.586;10.610;2023-07-30T05:22:23;100098.22;;;16.74;100.00
62150;BME280;48134;53.586;10.610;2023-07-30T05:24:58;100113.53;;;17.63;100.00
62150;BME280;48134;53.586;10.610;2023-07-30T05:27:31;100124.53;;;18.09;100.00
62150;BME280;48134;53.586;10.610;2023-07-30T05:30:06;100136.31;;;18.47;100.00
62150;BME280;48134;53.586;10.610;2023-07-30T05:32:39;100132.31;;;18.85;100.00
62150;BME280;48134;53.586;10.610;2023-07-30T05:35:12;100136.72;;;18.74;100.00
62150;BME280;48134;53.586;10.610;2023-07-30T05:37:45;100131.19;;;18.21;100.00
62150;BME280;48134;53.586;10.610;2023-07-30T05:40:15;100122.44;;;17.94;100.00
62150;BME280;48134;53.586;10.610;2023-07-30T05:42:48;100121.16;;;17.66;100.00
62150;BME280;48134;53.586;10.610;2023-07-30T05:45:21;100114.13;;;17.23;100.00
62150;BME280;48134;53.586;10.610;2023-07-30T05:47:54;100110.69;;;16.72;100.00
62150;BME280;48134;53.586;10.610;2023-07-30T05:50:23;100106.66;;;16.48;100.00
62150;BME280;48134;53.586;10.610;2023-07-30T05:52:56;100099.72;;;16.51;100.00
62150;BME280;48134;53.586;10.610;2023-07-30T05:55:30;100092.00;;;16.44;100.00
62150;BME280;48134;53.586;10.610;2023-07-30T05:58:03;100098.34;;;16.36;100.00
62150;BME280;48134;53.586;10.610;2023-07-30T06:00:37;100100.09;;;16.40;100.00
62150;BME280;48134;53.586;10.610;2023-07-30T06:03:10;100097.56;;;16.35;100.00
62150;BME280;48134;53.586;10.610;2023-07-30T06:05:41;100097.75;;;16.30;100.00
62150;BME280;48134;53.586;10.610;2023-07-30T06:08:10;100102.91;;;16.31;100.00
62150;BME280;48134;53.586;10.610;2023-07-30T06:10:44;100104.88;;;16.22;100.00
62150;BME280;48134;53.586;10.610;2023-07-30T06:13:21;100102.75;;;16.28;100.00
62150;BME280;48134;53.586;10.610;2023-07-30T06:15:49;100103.34;;;16.33;100.00
62150;BME280;48134;53.586;10.610;2023-07-30T06:18:22;100098.66;;;16.13;100.00
62150;BME280;48134;53.586;10.610;2023-07-30T06:20:55;100102.91;;;16.02;100.00
62150;BME280;48134;53.586;10.610;2023-07-30T06:23:23;100095.94;;;16.04;100.00
62150;BME280;48134;53.586;10.610;2023-07-30T06:25:53;100103.31;;;16.12;100.00
62150;BME280;48134;53.586;10.610;2023-07-30T06:28:21;100095.44;;;16.32;100.00
62150;BME280;48134;53.586;10.610;2023-07-30T06:30:55;100091.19;;;16.43;100.00
62150;BME280;48134;53.586;10.610;2023-07-30T06:33:23;100100.13;;;16.61;100.00
62150;BME280;48134;53.586;10.610;2023-07-30T06:35:56;100090.38;;;16.64;100.00
62150;BME280;48134;53.586;10.610;2023-07-30T06:38:29;100091.53;;;16.63;100.00
62150;BME280;48134;53.586;10.610;2023-07-30T06:41:04;100097.50;;;16.65;100.00
62150;BME280;48134;53.586;10.610;2023-07-30T06:43:32;100099.50;;;16.77;100.00
62150;BME280;48134;53.586;10.610;2023-07-30T06:46:05;100106.94;;;16.76;100.00
62150;BME280;48134;53.586;10.610;2023-07-30T06:48:39;100100.56;;;16.84;100.00
62150;BME280;48134;53.586;10.610;2023-07-30T06:51:10;100110.16;;;16.99;100.00
62150;BME280;48134;53.586;10.610;2023-07-30T06:53:39;100110.28;;;16.82;100.00
62150;BME280;48134;53.586;10.610;2023-07-30T06:56:14;100104.25;;;17.10;100.00
62150;BME280;48134;53.586;10.610;2023-07-30T06:58:47;100103.06;;;17.32;100.00
62150;BME280;48134;53.586;10.610;2023-07-30T07:01:20;100119.00;;;17.05;100.00
62150;BME280;48134;53.586;10.610;2023-07-30T07:03:53;100104.16;;;17.19;100.00
62150;BME280;48134;53.586;10.610;2023-07-30T07:06:22;100120.75;;;16.89;100.00
62150;BME280;48134;53.586;10.610;2023-07-30T07:08:55;100114.81;;;17.20;100.00
62150;BME280;48134;53.586;10.610;2023-07-30T07:11:29;100118.59;;;17.15;100.00
62150;BME280;48134;53.586;10.610;2023-07-30T07:13:58;100131.28;;;17.08;100.00
62150;BME280;48134;53.586;10.610;2023-07-30T07:16:26;100127.63;;;17.16;100.00
62150;BME280;48134;53.586;10.610;2023-07-30T07:18:59;100131.84;;;17.34;100.00
62150;BME280;48134;53.586;10.610;2023-07-30T07:21:28;100128.63;;;17.32;100.00
62150;BME280;48134;53.586;10.610;2023-07-30T07:24:01;100131.16;;;17.38;100.00
62150;BME280;48134;53.586;10.610;2023-07-30T07:26:35;100149.88;;;17.23;100.00
62150;BME280;48134;53.586;10.610;2023-07-30T07:29:09;100149.53;;;17.25;100.00
62150;BME280;48134;53.586;10.610;2023-07-30T07:31:42;100145.84;;;17.08;100.00
62150;BME280;48134;53.586;10.610;2023-07-30T07:34:15;100142.72;;;17.31;100.00
62150;BME280;48134;53.586;10.610;2023-07-30T07:36:48;100141.13;;;17.42;100.00
62150;BME280;48134;53.586;10.610;2023-07-30T07:39:22;100145.75;;;17.50;100.00
62150;BME280;48134;53.586;10.610;2023-07-30T07:41:51;100147.19;;;17.69;100.00
62150;BME280;48134;53.586;10.610;2023-07-30T07:44:24;100141.66;;;17.81;100.00
62150;BME280;48134;53.586;10.610;2023-07-30T07:46:57;100144.75;;;17.67;100.00
62150;BME280;48134;53.586;10.610;2023-07-30T07:49:30;100151.13;;;17.59;100.00
62150;BME280;48134;53.586;10.610;2023-07-30T07:52:04;100146.22;;;17.53;100.00
62150;BME280;48134;53.586;10.610;2023-07-30T07:54:37;100154.63;;;17.81;100.00
62150;BME280;48134;53.586;10.610;2023-07-30T07:57:12;100160.66;;;17.62;100.00
62150;BME280;48134;53.586;10.610;2023-07-30T07:59:45;100159.63;;;17.54;100.00
62150;BME280;48134;53.586;10.610;2023-07-30T08:02:18;100144.44;;;17.69;100.00
62150;BME280;48134;53.586;10.610;2023-07-30T08:04:52;100148.72;;;17.58;100.00
62150;BME280;48134;53.586;10.610;2023-07-30T08:07:25;100149.44;;;17.67;100.00
62150;BME280;48134;53.586;10.610;2023-07-30T08:09:58;100151.88;;;17.81;100.00
62150;BME280;48134;53.586;10.610;2023-07-30T08:12:27;100137.88;;;17.74;100.00
62150;BME280;48134;53.586;10.610;2023-07-30T08:15:01;100143.63;;;17.81;100.00
62150;BME280;48134;53.586;10.610;2023-07-30T08:17:34;100154.34;;;18.07;100.00
62150;BME280;48134;53.586;10.610;2023-07-30T08:20:04;100140.00;;;18.14;100.00
62150;BME280;48134;53.586;10.610;2023-07-30T08:22:37;100151.59;;;18.07;100.00
62150;BME280;48134;53.586;10.610;2023-07-30T08:25:11;100148.25;;;18.01;100.00
62150;BME280;48134;53.586;10.610;2023-07-30T08:27:45;100154.53;;;17.90;100.00
62150;BME280;48134;53.586;10.610;2023-07-30T08:30:14;100157.84;;;17.71;100.00
62150;BME280;48134;53.586;10.610;2023-07-30T08:32:47;100160.59;;;17.71;100.00
62150;BME280;48134;53.586;10.610;2023-07-30T08:35:20;100154.16;;;17.66;100.00
62150;BME280;48134;53.586;10.610;2023-07-30T08:37:54;100159.31;;;17.68;100.00
62150;BME280;48134;53.586;10.610;2023-07-30T08:40:27;100144.19;;;17.74;100.00
62150;BME280;48134;53.586;10.610;2023-07-30T08:43:02;100154.97;;;17.79;100.00
62150;BME280;48134;53.586;10.610;2023-07-30T08:45:35;100158.34;;;17.97;100.00
62150;BME280;48134;53.586;10.610;2023-07-30T08:48:08;100145.28;;;18.19;100.00
62150;BME280;48134;53.586;10.610;2023-07-30T08:50:42;100148.47;;;18.46;100.00
62150;BME280;48134;53.586;10.610;2023-07-30T08:53:16;100158.22;;;18.43;100.00
62150;BME280;48134;53.586;10.610;2023-07-30T08:55:49;100152.47;;;18.61;100.00
62150;BME280;48134;53.586;10.610;2023-07-30T08:58:25;100158.09;;;18.77;100.00
62150;BME280;48134;53.586;10.610;2023-07-30T09:01:01;100156.22;;;18.93;100.00
62150;BME280;48134;53.586;10.610;2023-07-30T09:03:40;100154.25;;;19.22;100.00
62150;BME280;48134;53.586;10.610;2023-07-30T09:06:08;100150.97;;;18.88;100.00
62150;BME280;48134;53.586;10.610;2023-07-30T09:08:41;100160.97;;;18.68;100.00
62150;BME280;48134;53.586;10.610;2023-07-30T09:11:10;100166.56;;;18.84;100.00
62150;BME280;48134;53.586;10.610;2023-07-30T09:13:45;100170.09;;;18.97;100.00
62150;BME280;48134;53.586;10.610;2023-07-30T09:16:14;100154.47;;;19.01;100.00
62150;BME280;48134;53.586;10.610;2023-07-30T09:18:44;100152.22;;;18.91;100.00
62150;BME280;48134;53.586;10.610;2023-07-30T09:21:18;100175.03;;;19.03;100.00
62150;BME280;48134;53.586;10.610;2023-07-30T09:23:51;100166.25;;;19.14;100.00
62150;BME280;48134;53.586;10.610;2023-07-30T09:26:19;100170.09;;;18.97;100.00
62150;BME280;48134;53.586;10.610;2023-07-30T09:28:56;100176.19;;;19.02;100.00
62150;BME280;48134;53.586;10.610;2023-07-30T09:31:24;100170.47;;;19.24;100.00
62150;BME280;48134;53.586;10.610;2023-07-30T09:33:57;100165.31;;;19.22;100.00
62150;BME280;48134;53.586;10.610;2023-07-30T09:36:31;100166.56;;;19.25;100.00
62150;BME280;48134;53.586;10.610;2023-07-30T09:39:04;100171.00;;;19.58;100.00
62150;BME280;48134;53.586;10.610;2023-07-30T09:41:46;100167.53;;;19.61;100.00
62150;BME280;48134;53.586;10.610;2023-07-30T09:44:21;100176.63;;;19.61;100.00
62150;BME280;48134;53.586;10.610;2023-07-30T09:46:54;100172.97;;;19.73;100.00
62150;BME280;48134;53.586;10.610;2023-07-30T09:49:27;100182.22;;;19.65;100.00
62150;BME280;48134;53.586;10.610;2023-07-30T09:51:56;100174.25;;;19.31;100.00
62150;BME280;48134;53.586;10.610;2023-07-30T09:54:31;100177.94;;;19.51;100.00
62150;BME280;48134;53.586;10.610;2023-07-30T09:57:05;100173.63;;;19.38;100.00
62150;BME280;48134;53.586;10.610;2023-07-30T09:59:39;100180.16;;;19.17;100.00
62150;BME280;48134;53.586;10.610;2023-07-30T10:02:13;100179.09;;;18.94;100.00
62150;BME280;48134;53.586;10.610;2023-07-30T10:04:49;100180.34;;;18.96;100.00
62150;BME280;48134;53.586;10.610;2023-07-30T10:07:24;100181.22;;;19.13;100.00
62150;BME280;48134;53.586;10.610;2023-07-30T10:09:58;100185.13;;;19.12;100.00
62150;BME280;48134;53.586;10.610;2023-07-30T10:12:33;100188.78;;;19.16;100.00
62150;BME280;48134;53.586;10.610;2023-07-30T10:15:06;100194.19;;;19.12;100.00
62150;BME280;48134;53.586;10.610;2023-07-30T10:17:39;100183.41;;;19.35;100.00
62150;BME280;48134;53.586;10.610;2023-07-30T10:20:25;100184.13;;;19.32;100.00
62150;BME280;48134;53.586;10.610;2023-07-30T10:23:00;100183.78;;;19.34;100.00
62150;BME280;48134;53.586;10.610;2023-07-30T10:25:42;100192.28;;;19.29;100.00
62150;BME280;48134;53.586;10.610;2023-07-30T10:28:26;100189.63;;;19.04;100.00
62150;BME280;48134;53.586;10.610;2023-07-30T10:31:04;100194.19;;;19.12;100.00
62150;BME280;48134;53.586;10.610;2023-07-30T10:33:49;100201.66;;;19.12;100.00
62150;BME280;48134;53.586;10.610;2023-07-30T10:36:31;100193.78;;;19.26;100.00
62150;BME280;48134;53.586;10.610;2023-07-30T10:39:09;100202.47;;;19.12;100.00
62150;BME280;48134;53.586;10.610;2023-07-30T10:41:44;100188.94;;;19.07;100.00
62150;BME280;48134;53.586;10.610;2023-07-30T10:44:23;100198.13;;;19.11;100.00
62150;BME280;48134;53.586;10.610;2023-07-30T10:46:54;100192.53;;;18.95;100.00
62150;BME280;48134;53.586;10.610;2023-07-30T10:49:27;100192.75;;;18.90;100.00
62150;BME280;48134;53.586;10.610;2023-07-30T10:52:00;100198.72;;;19.05;100.00
62150;BME280;48134;53.586;10.610;2023-07-30T10:54:33;100189.22;;;18.90;100.00
62150;BME280;48134;53.586;10.610;2023-07-30T10:57:06;100195.88;;;18.89;100.00
62150;BME280;48134;53.586;10.610;2023-07-30T10:59:39;100194.16;;;18.72;100.00
62150;BME280;48134;53.586;10.610;2023-07-30T11:02:15;100204.69;;;18.82;100.00
62150;BME280;48134;53.586;10.610;2023-07-30T11:04:48;100200.97;;;19.15;100.00
62150;BME280;48134;53.586;10.610;2023-07-30T11:07:22;100200.06;;;19.11;100.00
62150;BME280;48134;53.586;10.610;2023-07-30T11:09:59;100200.47;;;19.25;100.00
62150;BME280;48134;53.586;10.610;2023-07-30T11:12:33;100204.88;;;19.14;100.00
62150;BME280;48134;53.586;10.610;2023-07-30T11:15:07;100205.00;;;19.05;100.00
62150;BME280;48134;53.586;10.610;2023-07-30T11:17:42;100198.78;;;19.08;100.00
62150;BME280;48134;53.586;10.610;2023-07-30T11:20:22;100201.66;;;19.12;100.00
62150;BME280;48134;53.586;10.610;2023-07-30T11:22:50;100213.16;;;19.01;100.00
62150;BME280;48134;53.586;10.610;2023-07-30T11:25:18;100206.28;;;19.08;100.00
62150;BME280;48134;53.586;10.610;2023-07-30T11:27:51;100198.13;;;19.11;100.00
62150;BME280;48134;53.586;10.610;2023-07-30T11:30:24;100209.28;;;18.90;100.00
62150;BME280;48134;53.586;10.610;2023-07-30T11:33:01;100207.28;;;19.15;100.00
62150;BME280;48134;53.586;10.610;2023-07-30T11:35:30;100196.50;;;19.10;100.00
62150;BME280;48134;53.586;10.610;2023-07-30T11:37:58;100195.59;;;19.06;100.00
62150;BME280;48134;53.586;10.610;2023-07-30T11:40:26;100205.13;;;19.09;100.00
62150;BME280;48134;53.586;10.610;2023-07-30T11:42:55;100201.59;;;18.96;100.00
62150;BME280;48134;53.586;10.610;2023-07-30T11:45:24;100194.81;;;18.93;100.00
62150;BME280;48134;53.586;10.610;2023-07-30T11:48:07;100201.19;;;19.10;100.00
62150;BME280;48134;53.586;10.610;2023-07-30T11:50:45;100197.44;;;19.02;100.00
62150;BME280;48134;53.586;10.610;2023-07-30T11:53:19;100189.28;;;18.93;100.00
62150;BME280;48134;53.586;10.610;2023-07-30T11:55:47;100193.22;;;18.92;100.00
62150;BME280;48134;53.586;10.610;2023-07-30T11:58:16;100194.56;;;18.98;100.00
62150;BME280;48134;53.586;10.610;2023-07-30T12:00:44;100194.13;;;18.96;100.00
62150;BME280;48134;53.586;10.610;2023-07-30T12:03:20;100194.13;;;18.84;100.00
62150;BME280;48134;53.586;10.610;2023-07-30T12:05:53;100184.97;;;18.67;100.00
62150;BME280;48134;53.586;10.610;2023-07-30T12:08:25;100204.16;;;18.51;100.00
62150;BME280;48134;53.586;10.610;2023-07-30T12:10:54;100204.84;;;18.48;100.00
62150;BME280;48134;53.586;10.610;2023-07-30T12:13:28;100206.22;;;18.55;100.00
62150;BME280;48134;53.586;10.610;2023-07-30T12:16:02;100191.41;;;18.59;100.00
62150;BME280;48134;53.586;10.610;2023-07-30T12:18:36;100196.94;;;18.59;100.00
62150;BME280;48134;53.586;10.610;2023-07-30T12:21:09;100198.53;;;18.60;100.00
62150;BME280;48134;53.586;10.610;2023-07-30T12:23:44;100195.09;;;18.63;100.00
62150;BME280;48134;53.586;10.610;2023-07-30T12:26:18;100188.66;;;18.59;100.00
62150;BME280;48134;53.586;10.610;2023-07-30T12:28:51;100195.66;;;18.57;100.00
62150;BME280;48134;53.586;10.610;2023-07-30T12:31:24;100193.03;;;18.60;100.00
62150;BME280;48134;53.586;10.610;2023-07-30T12:33:55;100182.22;;;18.67;100.00
62150;BME280;48134;53.586;10.610;2023-07-30T12:36:28;100184.16;;;18.67;100.00
62150;BME280;48134;53.586;10.610;2023-07-30T12:38:56;100190.09;;;18.81;100.00
62150;BME280;48134;53.586;10.610;2023-07-30T12:41:29;100190.00;;;18.90;100.00
62150;BME280;48134;53.586;10.610;2023-07-30T12:43:57;100195.50;;;18.90;100.00
62150;BME280;48134;53.586;10.610;2023-07-30T12:46:31;100185.16;;;18.87;100.00
62150;BME280;48134;53.586;10.610;2023-07-30T12:49:00;100190.19;;;18.85;100.00
62150;BME280;48134;53.586;10.610;2023-07-30T12:51:36;100183.84;;;18.68;100.00
62150;BME280;48134;53.586;10.610;2023-07-30T12:54:09;100178.19;;;18.65;100.00
62150;BME280;48134;53.586;10.610;2023-07-30T12:56:42;100185.53;;;18.73;100.00
62150;BME280;48134;53.586;10.610;2023-07-30T12:59:15;100175.97;;;19.24;100.00